Time;durP1;ratioP1;P1;durP2;ratioP2;P2;SDS_P1;SDS_P2;PMS_P1;PMS_P2;Temp;Humidity;BMP_temperature;BMP_pressure;BME280_temperature;BME280_humidity;BME280_pressure;Samples;Min_cycle;Max_cycle;Signal;HPM_P1;HPM_P2
2021/12/27 00:01:15;;;;;;;2.03;1.05;;;3.00;99.90;;;;;;4995165;28;20220;-69
2021/12/27 00:03:57;;;;;;;2.45;0.98;;;2.90;99.90;;;;;;4992004;28;20235;-79
2021/12/27 00:06:28;;;;;;;3.45;1.00;;;2.80;99.90;;;;;;5001313;28;20233;-69
2021/12/27 00:09:07;;;;;;;4.90;0.95;;;2.70;99.90;;;;;;4999927;28;20223;-72
2021/12/27 00:11:43;;;;;;;2.08;1.00;;;2.70;99.90;;;;;;4997675;28;20227;-70
2021/12/27 00:14:15;;;;;;;2.67;1.20;;;2.60;99.90;;;;;;5006770;28;20675;-69
2021/12/27 00:16:46;;;;;;;1.45;1.35;;;2.50;99.90;;;;;;5001720;28;20295;-75
2021/12/27 00:19:17;;;;;;;2.17;0.90;;;2.50;99.90;;;;;;5002078;28;20234;-70
2021/12/27 00:21:49;;;;;;;1.85;1.45;;;2.50;99.90;;;;;;5002976;28;20672;-76
2021/12/27 00:24:20;;;;;;;2.80;1.30;;;2.40;99.90;;;;;;5004502;28;20228;-71
2021/12/27 00:26:53;;;;;;;2.30;1.25;;;2.40;99.90;;;;;;5004568;28;20246;-71
2021/12/27 00:29:24;;;;;;;3.10;1.25;;;2.40;99.90;;;;;;5004501;28;20571;-71
2021/12/27 00:31:56;;;;;;;6.22;1.50;;;2.40;99.90;;;;;;5004169;28;20233;-74
2021/12/27 00:34:36;;;;;;;2.40;1.40;;;2.30;99.90;;;;;;5001941;28;20772;-71
2021/12/27 00:37:08;;;;;;;3.03;1.13;;;2.20;99.90;;;;;;5011819;28;20679;-74
2021/12/27 00:39:39;;;;;;;2.03;1.20;;;2.10;99.90;;;;;;4989944;28;20234;-71
2021/12/27 00:42:12;;;;;;;2.95;1.20;;;2.10;99.90;;;;;;4996615;28;20226;-70
2021/12/27 00:44:43;;;;;;;1.67;0.80;;;2.00;99.90;;;;;;5000817;28;20223;-74
2021/12/27 00:47:14;;;;;;;1.30;0.70;;;2.00;99.90;;;;;;5003710;28;20222;-70
2021/12/27 00:49:45;;;;;;;1.35;1.17;;;2.00;99.90;;;;;;4990453;28;20245;-72
2021/12/27 00:52:16;;;;;;;3.50;1.13;;;1.90;99.90;;;;;;5003888;28;20570;-70
2021/12/27 00:54:47;;;;;;;2.05;0.95;;;2.00;99.90;;;;;;4997512;28;20652;-72
2021/12/27 00:57:20;;;;;;;2.78;1.70;;;2.00;99.90;;;;;;5001265;28;20219;-71
2021/12/27 00:59:50;;;;;;;2.40;0.90;;;2.10;99.90;;;;;;5000062;28;20229;-69
2021/12/27 01:02:21;;;;;;;1.88;1.55;;;2.20;99.90;;;;;;5000256;28;20225;-72
2021/12/27 01:04:55;;;;;;;4.43;1.38;;;2.20;99.90;;;;;;5002693;28;20590;-70
2021/12/27 01:07:26;;;;;;;2.28;1.20;;;2.20;99.90;;;;;;5007475;28;20614;-73
2021/12/27 01:10:06;;;;;;;4.50;1.73;;;2.20;99.90;;;;;;5003987;28;20219;-70
2021/12/27 01:12:50;;;;;;;2.63;1.48;;;2.20;99.90;;;;;;5000248;28;20220;-69
2021/12/27 01:15:45;;;;;;;1.33;1.23;;;2.30;99.90;;;;;;5000221;28;20698;-67
2021/12/27 01:18:19;;;;;;;1.63;1.00;;;2.30;99.90;;;;;;4989857;28;20270;-72
2021/12/27 01:20:54;;;;;;;4.50;1.20;;;2.30;99.90;;;;;;5001848;28;23454;-70
2021/12/27 01:23:40;;;;;;;2.13;1.75;;;2.20;99.90;;;;;;5005755;28;20228;-80
2021/12/27 01:26:16;;;;;;;1.95;1.30;;;2.30;99.90;;;;;;4998566;28;20211;-73
2021/12/27 01:28:59;;;;;;;2.67;1.38;;;2.30;99.90;;;;;;4997474;28;20220;-72
2021/12/27 01:31:43;;;;;;;4.35;1.55;;;2.40;99.90;;;;;;4984443;28;20320;-73
2021/12/27 01:34:15;;;;;;;1.63;1.52;;;2.40;99.90;;;;;;4997141;28;20243;-70
2021/12/27 01:37:17;;;;;;;1.90;1.42;;;2.40;99.90;;;;;;4972383;28;20215;-71
2021/12/27 01:40:15;;;;;;;4.80;1.88;;;2.60;99.90;;;;;;4999728;28;20224;-75
2021/12/27 01:43:08;;;;;;;2.85;2.15;;;2.50;99.90;;;;;;4991991;28;20304;-73
2021/12/27 01:46:29;;;;;;;2.53;2.00;;;2.60;99.90;;;;;;5001864;28;20298;-74
2021/12/27 01:49:12;;;;;;;5.05;1.85;;;2.50;99.90;;;;;;5006990;28;20292;-73
2021/12/27 01:51:48;;;;;;;1.83;1.63;;;2.60;99.90;;;;;;4996243;28;20727;-72
2021/12/27 01:54:22;;;;;;;2.67;2.00;;;2.50;99.90;;;;;;5002388;28;20234;-71
2021/12/27 01:56:53;;;;;;;3.15;1.75;;;2.50;99.90;;;;;;4994411;28;20227;-70
2021/12/27 01:59:28;;;;;;;2.13;1.92;;;2.50;99.90;;;;;;5001706;28;20269;-73
2021/12/27 02:02:09;;;;;;;2.72;2.08;;;2.50;99.90;;;;;;5003884;28;20325;-71
2021/12/27 02:04:59;;;;;;;3.15;2.45;;;2.60;99.90;;;;;;5009369;28;20215;-74
2021/12/27 02:07:32;;;;;;;3.45;2.22;;;2.60;99.90;;;;;;4995410;28;20279;-73
2021/12/27 02:10:05;;;;;;;4.32;2.20;;;2.60;99.90;;;;;;5001865;28;20231;-72
2021/12/27 02:12:37;;;;;;;6.75;2.17;;;2.60;99.90;;;;;;4995060;28;20227;-73
2021/12/27 02:15:12;;;;;;;4.22;1.90;;;2.50;99.90;;;;;;4991580;28;20282;-76
2021/12/27 02:17:45;;;;;;;3.95;2.45;;;2.50;99.90;;;;;;4999819;28;20974;-72
2021/12/27 02:20:21;;;;;;;3.28;2.22;;;2.60;99.90;;;;;;5004055;28;20223;-71
2021/12/27 02:22:55;;;;;;;3.45;2.58;;;2.60;99.90;;;;;;5003346;28;20222;-72
2021/12/27 02:25:27;;;;;;;3.95;2.13;;;2.60;99.90;;;;;;5007127;28;20695;-73
2021/12/27 02:27:58;;;;;;;3.03;1.95;;;2.50;99.90;;;;;;4993967;28;20219;-73
2021/12/27 02:30:30;;;;;;;3.58;1.95;;;2.60;99.90;;;;;;4999095;28;20314;-74
2021/12/27 02:33:04;;;;;;;2.45;2.17;;;2.40;99.90;;;;;;5004760;28;20219;-71
2021/12/27 02:35:40;;;;;;;6.78;3.45;;;2.40;99.90;;;;;;4999921;28;20223;-71
2021/12/27 02:38:19;;;;;;;6.18;2.40;;;2.40;99.90;;;;;;5002200;28;20224;-75
2021/12/27 02:40:51;;;;;;;5.35;3.80;;;2.40;99.90;;;;;;4999643;28;20711;-72
2021/12/27 02:43:27;;;;;;;5.28;2.28;;;2.40;99.90;;;;;;5005352;28;20287;-72
2021/12/27 02:46:13;;;;;;;3.92;2.65;;;2.30;99.90;;;;;;4992657;28;20299;-74
2021/12/27 02:48:55;;;;;;;3.40;2.88;;;2.30;99.90;;;;;;5005119;28;20219;-78
2021/12/27 02:52:06;;;;;;;3.53;3.22;;;2.30;99.90;;;;;;5001309;28;20215;-75
2021/12/27 03:06:14;;;;;;;5.60;3.67;;;2.10;99.90;;;;;;4981540;28;20282;-75
2021/12/27 03:09:06;;;;;;;4.15;2.95;;;2.10;99.90;;;;;;4997789;28;20279;-71
2021/12/27 03:11:37;;;;;;;7.65;3.35;;;2.20;99.90;;;;;;4995809;28;20239;-68
2021/12/27 03:14:08;;;;;;;7.43;4.70;;;2.30;99.90;;;;;;4997296;28;20230;-74
2021/12/27 03:16:39;;;;;;;4.40;2.85;;;2.30;99.90;;;;;;5001894;28;20587;-70
2021/12/27 03:19:12;;;;;;;3.97;2.90;;;2.20;99.90;;;;;;5008028;28;20238;-72
2021/12/27 03:21:48;;;;;;;2.97;2.28;;;2.20;99.90;;;;;;4999835;28;20234;-75
2021/12/27 03:24:22;;;;;;;4.25;2.75;;;2.20;99.90;;;;;;4997648;28;20246;-70
2021/12/27 03:26:54;;;;;;;7.05;2.88;;;2.30;99.90;;;;;;5000554;28;20219;-72
2021/12/27 03:29:25;;;;;;;4.50;2.22;;;2.30;99.90;;;;;;4999955;28;20233;-66
2021/12/27 03:31:57;;;;;;;4.80;2.45;;;2.30;99.90;;;;;;5005399;28;20279;-67
2021/12/27 03:34:31;;;;;;;3.13;1.90;;;2.30;99.90;;;;;;5007595;28;20616;-69
2021/12/27 03:37:02;;;;;;;4.05;2.20;;;2.30;99.90;;;;;;5008703;28;20679;-72
2021/12/27 03:39:35;;;;;;;12.05;3.58;;;2.30;99.90;;;;;;4993292;28;20257;-69
2021/12/27 03:42:06;;;;;;;2.60;1.90;;;2.30;99.90;;;;;;5003477;28;20256;-73
2021/12/27 03:44:37;;;;;;;3.05;2.75;;;2.20;99.90;;;;;;5006327;28;20224;-72
2021/12/27 03:47:08;;;;;;;2.63;2.42;;;2.20;99.90;;;;;;5007338;28;20237;-72
2021/12/27 03:49:39;;;;;;;2.42;2.20;;;2.20;99.90;;;;;;4998188;28;20215;-71
2021/12/27 03:52:10;;;;;;;3.95;2.15;;;2.20;99.90;;;;;;4995358;28;20277;-72
2021/12/27 03:54:43;;;;;;;5.47;2.72;;;2.20;99.90;;;;;;4987365;28;20236;-67
2021/12/27 03:57:14;;;;;;;3.22;2.15;;;2.00;99.90;;;;;;4993753;28;20243;-70
2021/12/27 04:00:14;;;;;;;2.42;2.20;;;2.10;99.90;;;;;;4999186;28;20214;-68
2021/12/27 04:02:44;;;;;;;1.88;1.52;;;2.00;99.90;;;;;;4992219;28;20224;-68
2021/12/27 04:05:16;;;;;;;2.75;1.77;;;2.00;99.90;;;;;;4999123;28;20247;-69
2021/12/27 04:07:55;;;;;;;3.22;2.15;;;1.90;99.90;;;;;;4995813;28;20215;-71
2021/12/27 04:10:28;;;;;;;4.15;2.85;;;1.90;99.90;;;;;;4996961;28;20318;-67
2021/12/27 04:12:59;;;;;;;6.50;3.03;;;1.80;99.90;;;;;;4996896;28;20272;-71
2021/12/27 04:15:30;;;;;;;4.90;2.97;;;1.80;99.90;;;;;;5001251;28;20321;-66
2021/12/27 04:18:01;;;;;;;2.92;2.45;;;1.80;99.90;;;;;;5002837;28;20734;-74
2021/12/27 04:20:33;;;;;;;2.75;2.35;;;1.90;99.90;;;;;;5005242;28;20223;-68
2021/12/27 04:23:04;;;;;;;3.08;2.70;;;1.90;99.90;;;;;;5009455;28;20538;-66
2021/12/27 04:25:37;;;;;;;3.65;2.92;;;1.80;99.90;;;;;;5000301;28;20235;-67
2021/12/27 04:28:08;;;;;;;3.25;3.05;;;1.80;99.90;;;;;;4996501;28;20215;-67
2021/12/27 04:30:39;;;;;;;4.00;3.05;;;1.80;99.90;;;;;;5005342;28;20219;-67
2021/12/27 04:33:10;;;;;;;6.22;2.90;;;1.80;99.90;;;;;;4994853;28;21045;-67
2021/12/27 04:35:41;;;;;;;3.10;2.70;;;1.80;99.90;;;;;;4998283;28;20268;-66
2021/12/27 04:38:14;;;;;;;3.85;2.20;;;1.80;99.90;;;;;;5001268;28;20230;-66
2021/12/27 04:40:48;;;;;;;4.00;2.45;;;1.90;99.90;;;;;;4986607;28;20227;-68
2021/12/27 04:43:21;;;;;;;3.00;2.65;;;1.90;99.90;;;;;;4997128;28;20210;-66
2021/12/27 04:45:53;;;;;;;4.07;2.78;;;2.00;99.90;;;;;;4992082;28;20223;-68
2021/12/27 04:48:26;;;;;;;3.55;2.58;;;1.90;99.90;;;;;;5001218;28;20219;-67
2021/12/27 04:50:57;;;;;;;4.40;2.58;;;1.90;99.90;;;;;;5001830;28;20238;-66
2021/12/27 04:53:28;;;;;;;4.03;2.95;;;1.80;99.90;;;;;;5000770;28;20219;-66
2021/12/27 04:56:03;;;;;;;3.08;2.35;;;1.90;99.90;;;;;;5001454;28;20227;-66
2021/12/27 04:58:34;;;;;;;4.50;2.92;;;1.80;99.90;;;;;;4994994;28;20226;-66
2021/12/27 05:01:05;;;;;;;3.83;2.97;;;1.70;99.90;;;;;;4992226;28;20566;-66
2021/12/27 05:03:36;;;;;;;3.30;2.90;;;1.70;99.90;;;;;;4994470;28;20687;-67
2021/12/27 05:06:07;;;;;;;3.05;2.60;;;1.80;99.90;;;;;;5002102;28;20212;-67
2021/12/27 05:08:38;;;;;;;2.65;2.45;;;1.80;99.90;;;;;;5002973;28;20222;-66
2021/12/27 05:11:11;;;;;;;5.57;2.40;;;1.70;99.90;;;;;;5002597;28;20223;-67
2021/12/27 05:13:42;;;;;;;4.20;2.83;;;1.70;99.90;;;;;;4997047;28;20223;-68
2021/12/27 05:16:13;;;;;;;3.75;2.80;;;1.70;99.90;;;;;;4996689;28;20235;-67
2021/12/27 05:18:44;;;;;;;4.05;2.38;;;1.70;99.90;;;;;;5001832;28;20298;-66
2021/12/27 05:21:14;;;;;;;4.43;2.25;;;1.80;99.90;;;;;;5005148;28;20223;-66
2021/12/27 05:23:46;;;;;;;2.42;2.25;;;1.80;99.90;;;;;;4997954;28;20218;-65
2021/12/27 05:26:18;;;;;;;2.15;1.95;;;1.80;99.90;;;;;;5005971;28;22171;-66
2021/12/27 05:28:49;;;;;;;1.80;1.70;;;1.80;99.90;;;;;;5009212;28;20211;-67
2021/12/27 05:31:20;;;;;;;4.10;2.40;;;1.90;99.90;;;;;;4991304;28;20244;-67
2021/12/27 05:33:51;;;;;;;3.25;2.78;;;1.90;99.90;;;;;;4999680;28;20215;-67
2021/12/27 05:36:22;;;;;;;2.63;2.42;;;1.90;99.90;;;;;;4996704;28;20228;-67
2021/12/27 05:38:53;;;;;;;2.65;2.45;;;1.90;99.90;;;;;;4999513;28;20718;-66
2021/12/27 05:41:25;;;;;;;5.05;2.80;;;1.90;99.90;;;;;;5004015;28;20242;-66
2021/12/27 05:43:56;;;;;;;4.28;3.88;;;1.90;99.90;;;;;;4994571;28;20287;-65
2021/12/27 05:46:27;;;;;;;8.32;6.35;;;2.00;99.90;;;;;;4995454;28;20569;-66
2021/12/27 05:48:58;;;;;;;7.45;4.55;;;2.00;99.90;;;;;;4994950;28;20216;-66
2021/12/27 05:51:28;;;;;;;4.50;4.10;;;2.00;99.90;;;;;;5004043;28;20632;-67
2021/12/27 05:53:59;;;;;;;4.10;3.60;;;2.00;99.90;;;;;;5007014;28;20640;-66
2021/12/27 05:56:32;;;;;;;4.05;3.60;;;2.00;99.90;;;;;;5002572;28;20622;-66
2021/12/27 05:59:06;;;;;;;3.72;2.35;;;2.00;99.90;;;;;;5001445;28;20302;-66
2021/12/27 06:01:37;;;;;;;2.42;2.05;;;1.90;99.90;;;;;;4999251;28;20215;-68
2021/12/27 06:04:08;;;;;;;3.25;2.90;;;1.90;99.90;;;;;;4999721;28;20246;-67
2021/12/27 06:06:39;;;;;;;3.95;2.65;;;1.90;99.90;;;;;;4994916;28;20310;-65
2021/12/27 06:09:10;;;;;;;2.60;2.05;;;2.00;99.90;;;;;;4992312;28;20671;-67
2021/12/27 06:11:42;;;;;;;2.30;2.20;;;2.00;99.90;;;;;;4998973;28;20211;-65
2021/12/27 06:14:13;;;;;;;2.03;1.92;;;1.90;99.90;;;;;;4998397;28;20685;-66
2021/12/27 06:16:44;;;;;;;4.45;2.40;;;1.90;99.90;;;;;;5003151;28;20231;-66
2021/12/27 06:19:15;;;;;;;4.03;1.95;;;1.80;99.90;;;;;;5006947;28;20223;-66
2021/12/27 06:21:46;;;;;;;2.40;2.20;;;1.90;99.90;;;;;;4999833;28;20215;-65
2021/12/27 06:24:17;;;;;;;1.75;1.65;;;1.80;99.90;;;;;;5012053;28;20284;-66
2021/12/27 06:26:50;;;;;;;3.28;2.25;;;1.80;99.90;;;;;;4993393;28;20318;-66
2021/12/27 06:29:21;;;;;;;1.73;1.63;;;1.80;99.90;;;;;;4991961;28;20216;-66
2021/12/27 06:31:52;;;;;;;2.00;1.38;;;1.80;99.90;;;;;;4999905;28;20230;-65
2021/12/27 06:34:23;;;;;;;2.22;1.92;;;1.80;99.90;;;;;;5009641;28;20559;-65
2021/12/27 06:36:54;;;;;;;4.05;1.88;;;1.80;99.90;;;;;;5008025;28;20235;-65
2021/12/27 06:39:24;;;;;;;2.40;2.20;;;1.80;99.90;;;;;;5010001;28;20227;-65
2021/12/27 06:41:57;;;;;;;1.83;1.73;;;1.90;99.90;;;;;;5004413;28;20243;-65
2021/12/27 06:44:28;;;;;;;3.13;2.30;;;1.90;99.90;;;;;;5001753;28;20231;-66
2021/12/27 06:46:59;;;;;;;4.45;2.10;;;1.90;99.90;;;;;;4988913;28;20224;-65
2021/12/27 06:49:31;;;;;;;2.13;1.60;;;1.80;99.90;;;;;;4996672;28;20271;-66
2021/12/27 06:52:03;;;;;;;3.92;2.38;;;1.80;99.90;;;;;;5005921;28;20220;-66
2021/12/27 06:54:34;;;;;;;2.75;2.58;;;1.80;99.90;;;;;;4990375;28;20223;-65
2021/12/27 06:57:07;;;;;;;2.20;2.00;;;1.80;99.90;;;;;;5005379;28;20235;-65
2021/12/27 06:59:39;;;;;;;3.63;3.33;;;1.80;99.90;;;;;;4999934;28;20585;-65
2021/12/27 07:02:10;;;;;;;3.63;2.60;;;1.80;99.90;;;;;;4999048;28;20320;-65
2021/12/27 07:04:41;;;;;;;2.40;2.20;;;1.90;99.90;;;;;;5003076;28;20636;-65
2021/12/27 07:07:12;;;;;;;2.40;2.08;;;1.90;99.90;;;;;;4993396;28;20219;-65
2021/12/27 07:09:42;;;;;;;2.92;2.72;;;1.80;99.90;;;;;;4994482;28;20621;-66
2021/12/27 07:12:15;;;;;;;3.38;3.10;;;1.80;99.90;;;;;;5000350;28;20229;-66
2021/12/27 07:14:47;;;;;;;3.40;3.20;;;1.80;99.90;;;;;;4993170;28;20219;-66
2021/12/27 07:17:18;;;;;;;2.58;2.38;;;1.80;99.90;;;;;;4995554;28;20250;-66
2021/12/27 07:19:49;;;;;;;2.20;2.10;;;1.80;99.90;;;;;;4988568;28;20246;-65
2021/12/27 07:22:20;;;;;;;3.67;2.08;;;1.80;99.90;;;;;;4992180;28;20258;-66
2021/12/27 07:24:51;;;;;;;3.47;2.03;;;1.70;99.90;;;;;;4995281;28;20307;-66
2021/12/27 07:27:23;;;;;;;2.53;2.33;;;1.70;99.90;;;;;;5007514;28;20226;-66
2021/12/27 07:29:54;;;;;;;2.00;1.90;;;1.70;99.90;;;;;;5001207;28;20231;-66
2021/12/27 07:32:25;;;;;;;3.30;2.38;;;1.70;99.90;;;;;;5009111;28;20227;-65
2021/12/27 07:34:56;;;;;;;1.50;1.50;;;1.70;99.90;;;;;;5008022;28;20585;-65
2021/12/27 07:37:27;;;;;;;1.70;1.60;;;1.80;99.90;;;;;;5008239;28;20313;-66
2021/12/27 07:39:58;;;;;;;1.45;1.35;;;1.90;99.90;;;;;;5005454;28;20219;-65
2021/12/27 07:42:30;;;;;;;2.03;1.48;;;1.80;99.90;;;;;;4992930;28;20697;-65
2021/12/27 07:45:02;;;;;;;1.55;1.40;;;1.80;99.90;;;;;;4996374;28;20228;-66
2021/12/27 07:47:33;;;;;;;1.60;1.45;;;1.90;99.90;;;;;;5007459;28;20262;-66
2021/12/27 07:50:04;;;;;;;2.17;1.90;;;1.90;99.90;;;;;;5006961;28;20242;-66
2021/12/27 07:52:35;;;;;;;1.58;1.48;;;1.80;99.90;;;;;;5002411;28;20216;-65
2021/12/27 07:55:07;;;;;;;1.80;1.67;;;1.90;99.90;;;;;;4996164;28;20223;-66
2021/12/27 07:57:40;;;;;;;1.70;1.60;;;1.80;99.90;;;;;;5000949;28;20303;-66
2021/12/27 08:00:11;;;;;;;5.55;1.98;;;1.90;99.90;;;;;;5006824;28;20671;-66
2021/12/27 08:02:43;;;;;;;1.95;1.70;;;1.80;99.90;;;;;;4995300;28;20224;-65
2021/12/27 08:05:20;;;;;;;2.08;1.40;;;1.80;99.90;;;;;;4998423;28;20219;-66
2021/12/27 08:07:51;;;;;;;1.83;1.60;;;1.80;99.90;;;;;;4990854;28;20238;-66
2021/12/27 08:10:22;;;;;;;1.77;1.67;;;1.80;99.90;;;;;;4993468;28;20219;-66
2021/12/27 08:12:55;;;;;;;1.50;1.40;;;1.80;99.90;;;;;;5003608;28;20253;-66
2021/12/27 08:15:26;;;;;;;1.25;1.15;;;1.80;99.90;;;;;;4997598;28;20221;-65
2021/12/27 08:17:57;;;;;;;1.67;1.20;;;1.70;99.90;;;;;;5007133;28;20587;-66
2021/12/27 08:20:28;;;;;;;1.52;1.42;;;1.70;99.90;;;;;;4997438;28;20216;-66
2021/12/27 08:22:59;;;;;;;3.22;1.20;;;1.80;99.90;;;;;;5001094;28;20648;-65
2021/12/27 08:25:30;;;;;;;1.77;0.90;;;1.70;99.90;;;;;;5001905;28;20235;-65
2021/12/27 08:28:02;;;;;;;2.08;1.52;;;1.70;99.90;;;;;;5009866;28;20215;-66
2021/12/27 08:30:33;;;;;;;1.80;1.48;;;1.70;99.90;;;;;;5007793;28;20223;-66
2021/12/27 08:33:04;;;;;;;1.48;1.38;;;1.70;99.90;;;;;;5009902;28;20226;-65
2021/12/27 08:35:36;;;;;;;1.15;1.05;;;1.80;99.90;;;;;;5005924;28;20226;-66
2021/12/27 08:38:07;;;;;;;1.80;1.38;;;1.70;99.90;;;;;;5012300;28;20235;-66
2021/12/27 08:40:38;;;;;;;3.42;1.58;;;1.70;99.90;;;;;;5009658;28;21122;-66
2021/12/27 08:43:10;;;;;;;0.95;0.95;;;1.70;99.90;;;;;;5004033;28;20242;-67
2021/12/27 08:45:44;;;;;;;1.33;1.23;;;1.70;99.90;;;;;;5003126;28;20670;-68
2021/12/27 08:48:15;;;;;;;2.22;1.58;;;1.70;99.90;;;;;;4998200;28;20212;-67
2021/12/27 08:50:46;;;;;;;2.72;1.40;;;1.70;99.90;;;;;;4993891;28;20241;-67
2021/12/27 08:53:16;;;;;;;2.60;1.20;;;1.70;99.90;;;;;;5007799;28;20294;-67
2021/12/27 08:55:47;;;;;;;2.70;1.00;;;1.60;99.90;;;;;;4994080;28;20219;-67
2021/12/27 08:58:20;;;;;;;0.85;0.82;;;1.60;99.90;;;;;;5006518;28;20234;-67
2021/12/27 09:00:51;;;;;;;1.33;1.23;;;1.60;99.90;;;;;;5005738;28;20211;-66
2021/12/27 09:03:22;;;;;;;2.85;1.65;;;1.50;99.90;;;;;;5007313;28;20580;-67
2021/12/27 09:05:53;;;;;;;2.47;1.35;;;1.50;99.90;;;;;;5006473;28;20254;-67
2021/12/27 09:08:24;;;;;;;1.60;1.50;;;1.40;99.90;;;;;;5006588;28;20223;-67
2021/12/27 09:10:57;;;;;;;1.10;1.05;;;1.40;99.90;;;;;;5008072;28;20283;-67
2021/12/27 09:13:31;;;;;;;1.20;1.00;;;1.40;99.90;;;;;;5007734;28;20220;-66
2021/12/27 09:16:03;;;;;;;2.35;1.23;;;1.40;99.90;;;;;;5004192;28;20620;-67
2021/12/27 09:18:35;;;;;;;1.10;1.00;;;1.40;99.90;;;;;;5007829;28;20688;-66
2021/12/27 09:21:06;;;;;;;1.85;0.93;;;1.40;99.90;;;;;;5005402;28;20234;-66
2021/12/27 09:23:37;;;;;;;1.52;1.42;;;1.40;99.90;;;;;;5009197;28;20242;-66
2021/12/27 09:26:08;;;;;;;1.67;1.02;;;1.40;99.90;;;;;;5007682;28;20582;-67
2021/12/27 09:28:40;;;;;;;1.35;1.08;;;1.50;99.90;;;;;;5008807;28;20635;-66
2021/12/27 09:31:11;;;;;;;2.10;1.00;;;1.40;99.90;;;;;;5007478;28;20269;-67
2021/12/27 09:33:42;;;;;;;2.35;1.27;;;1.40;99.90;;;;;;5006326;28;20253;-71
2021/12/27 09:36:17;;;;;;;1.05;1.05;;;1.40;99.90;;;;;;5007277;28;20230;-67
2021/12/27 09:38:48;;;;;;;2.95;1.00;;;1.40;99.90;;;;;;5008527;28;20699;-66
2021/12/27 09:41:24;;;;;;;1.48;1.38;;;1.50;99.90;;;;;;5006707;28;20229;-67
2021/12/27 09:43:57;;;;;;;1.70;1.52;;;1.50;99.90;;;;;;5008792;28;20227;-67
2021/12/27 09:46:28;;;;;;;1.60;1.50;;;1.50;99.90;;;;;;5005383;28;20223;-66
2021/12/27 09:49:01;;;;;;;6.13;2.22;;;1.50;99.90;;;;;;5004649;28;20229;-69
2021/12/27 10:02:57;;;;;;;1.70;0.77;;;1.30;99.90;;;;;;4996675;28;20298;-73
2021/12/27 10:05:41;;;;;;;0.98;0.77;;;1.20;99.90;;;;;;5004512;28;20223;-72
2021/12/27 10:08:15;;;;;;;0.50;0.50;;;1.20;99.90;;;;;;5009107;28;20223;-73
2021/12/27 10:11:19;;;;;;;1.25;0.70;;;1.10;99.90;;;;;;5002426;28;20541;-74
2021/12/27 10:14:42;;;;;;;0.80;0.70;;;1.10;99.90;;;;;;4999937;28;20334;-74
2021/12/27 10:17:23;;;;;;;0.50;0.50;;;1.10;99.90;;;;;;5008525;28;20281;-74
2021/12/27 10:19:57;;;;;;;2.47;0.85;;;1.10;99.90;;;;;;5007451;28;20243;-73
2021/12/27 10:26:05;;;;;;;0.85;0.57;;;1.20;99.90;;;;;;5009714;28;20241;-73
2021/12/27 13:12:43;;;;;;;1.27;0.60;;;1.10;99.90;;;;;;6064693;22;2574523;-76
2021/12/27 13:15:17;;;;;;;1.02;0.70;;;1.00;99.90;;;;;;6090267;23;20548;-78
2021/12/27 13:18:02;;;;;;;4.38;1.40;;;1.00;99.90;;;;;;6091813;23;20200;-68
2021/12/27 13:20:34;;;;;;;1.85;0.90;;;1.10;99.90;;;;;;6088871;23;20286;-71
2021/12/27 13:23:06;;;;;;;1.15;0.90;;;1.10;99.90;;;;;;6093215;23;20191;-72
2021/12/27 13:25:40;;;;;;;3.08;1.08;;;1.00;99.90;;;;;;6091024;23;20547;-71
2021/12/27 13:28:21;;;;;;;2.38;0.85;;;1.10;99.90;;;;;;6091321;23;20602;-71
2021/12/27 13:31:02;;;;;;;3.20;2.90;;;1.20;99.90;;;;;;6091421;23;20205;-72
2021/12/27 13:33:40;;;;;;;3.40;3.10;;;1.20;99.90;;;;;;6091151;23;20479;-71
2021/12/27 13:36:13;;;;;;;4.40;4.00;;;1.30;99.90;;;;;;6091039;23;20208;-71
2021/12/27 13:38:45;;;;;;;5.45;4.30;;;1.20;99.90;;;;;;6092635;23;20215;-72
2021/12/27 13:41:26;;;;;;;5.20;4.57;;;1.10;99.90;;;;;;6091049;23;20181;-72
2021/12/27 13:44:01;;;;;;;6.03;5.53;;;1.00;99.90;;;;;;6090615;23;20533;-73
2021/12/27 13:46:34;;;;;;;6.60;5.47;;;0.90;99.90;;;;;;6089380;23;20184;-73
2021/12/27 13:49:07;;;;;;;5.95;5.40;;;0.90;99.90;;;;;;6091508;23;20284;-71
2021/12/27 13:51:42;;;;;;;6.50;5.90;;;0.80;99.90;;;;;;6091259;23;20208;-73
2021/12/27 13:54:16;;;;;;;7.35;6.65;;;0.80;99.90;;;;;;6092510;23;20194;-73
2021/12/27 13:56:49;;;;;;;7.70;7.00;;;0.70;99.90;;;;;;6090427;23;20185;-74
2021/12/27 13:59:24;;;;;;;8.68;7.78;;;0.70;99.90;;;;;;6092267;23;20263;-73
2021/12/27 14:01:58;;;;;;;11.35;7.65;;;0.60;99.90;;;;;;6091603;23;20554;-72
2021/12/27 14:04:32;;;;;;;11.55;6.85;;;0.60;99.90;;;;;;6090457;23;20240;-73
2021/12/27 14:07:05;;;;;;;12.18;8.30;;;0.60;99.90;;;;;;6092673;23;20185;-73
2021/12/27 14:09:45;;;;;;;8.48;7.35;;;0.50;99.90;;;;;;6090517;23;20270;-73
2021/12/27 14:12:25;;;;;;;441.33;80.85;;;0.40;99.90;;;;;;6088728;23;20204;-73
2021/12/27 14:15:06;;;;;;;15.13;8.82;;;0.50;99.90;;;;;;6090935;23;20192;-72
2021/12/27 14:17:44;;;;;;;8.18;7.38;;;0.40;99.90;;;;;;6089053;23;20207;-72
2021/12/27 14:20:18;;;;;;;9.50;7.88;;;0.40;99.90;;;;;;6089252;23;20199;-72
2021/12/27 14:22:52;;;;;;;7.40;6.70;;;0.30;99.90;;;;;;6092278;23;20184;-72
2021/12/27 14:25:26;;;;;;;8.95;6.40;;;0.20;99.90;;;;;;6090590;23;20207;-73
2021/12/27 14:27:58;;;;;;;7.30;5.85;;;0.10;99.90;;;;;;6092268;23;20188;-73
2021/12/27 14:30:32;;;;;;;6.55;5.95;;;0.10;99.90;;;;;;6089068;23;20189;-73
2021/12/27 14:33:06;;;;;;;6.82;6.18;;;0.00;99.90;;;;;;6092318;23;20657;-73
2021/12/27 14:35:40;;;;;;;6.90;6.30;;;-0.10;99.90;;;;;;6090391;23;20210;-73
2021/12/27 14:46:42;;;;;;;6.18;5.35;;;-0.20;99.90;;;;;;6072991;23;20207;-72
2021/12/27 15:19:02;;;;;;;5.95;4.80;;;-0.50;99.90;;;;;;6054269;23;20714;-72
2021/12/27 15:24:43;;;;;;;5.28;4.78;;;-0.50;99.90;;;;;;6094311;23;20188;-74
2021/12/27 16:00:16;;;;;;;10.18;5.60;;;-1.20;99.90;;;;;;6065906;23;20246;-73
2021/12/27 16:03:41;;;;;;;18.23;6.25;;;-1.20;99.90;;;;;;6069392;23;20521;-73
2021/12/27 16:06:40;;;;;;;6.63;4.78;;;-1.20;99.90;;;;;;6088705;23;20298;-73
2021/12/27 16:09:57;;;;;;;7.63;4.97;;;-1.30;99.90;;;;;;6069273;23;20533;-74
2021/12/27 16:29:43;;;;;;;4.07;3.67;;;-1.00;99.90;;;;;;6081686;23;20276;-74
2021/12/27 16:32:49;;;;;;;5.05;3.70;;;-1.00;99.90;;;;;;6052056;23;20204;-73
2021/12/27 16:38:41;;;;;;;5.65;3.95;;;-1.10;99.90;;;;;;6056328;23;20193;-72
2021/12/27 16:41:15;;;;;;;3.47;3.10;;;-1.10;99.90;;;;;;6060879;23;20209;-72
2021/12/27 16:43:52;;;;;;;3.38;3.13;;;-1.10;99.90;;;;;;6063671;23;20264;-70
2021/12/27 16:46:27;;;;;;;3.28;2.97;;;-1.00;99.90;;;;;;6056821;23;20185;-71
2021/12/27 16:48:58;;;;;;;3.63;2.75;;;-0.90;99.90;;;;;;6060388;23;20184;-71
2021/12/27 16:51:31;;;;;;;8.82;4.75;;;-0.80;99.90;;;;;;6062552;23;20253;-73
2021/12/27 16:54:08;;;;;;;3.50;2.55;;;-0.90;99.90;;;;;;6064059;23;20217;-71
2021/12/27 16:56:39;;;;;;;8.05;5.07;;;-1.10;99.90;;;;;;6062579;23;20219;-72
2021/12/27 16:59:10;;;;;;;3.67;2.80;;;-1.00;99.90;;;;;;6064315;23;20196;-73
2021/12/27 17:01:43;;;;;;;4.88;3.20;;;-0.80;99.90;;;;;;6060214;23;20232;-72
2021/12/27 17:04:17;;;;;;;62.97;16.17;;;-0.70;99.90;;;;;;6061155;23;20181;-72
2021/12/27 17:06:53;;;;;;;5.07;3.63;;;-0.30;99.90;;;;;;6064173;23;20181;-69
2021/12/27 17:09:24;;;;;;;3.05;2.85;;;0.80;99.90;;;;;;6060061;23;20193;-72
2021/12/27 17:11:56;;;;;;;10.23;4.63;;;1.70;99.90;;;;;;6063860;23;20213;-72
2021/12/27 17:14:29;;;;;;;4.40;2.72;;;2.40;99.90;;;;;;6061865;23;20212;-71
2021/12/27 17:17:20;;;;;;;3.88;3.15;;;2.90;99.90;;;;;;6060732;23;20385;-73
2021/12/27 17:20:08;;;;;;;2.80;2.35;;;3.00;99.90;;;;;;6059812;23;20209;-74
2021/12/27 17:22:40;;;;;;;3.50;2.72;;;3.20;99.90;;;;;;6056031;23;20208;-71
2021/12/27 17:25:57;;;;;;;5.60;3.45;;;3.40;99.90;;;;;;6058027;23;20259;-72
2021/12/27 17:33:10;;;;;;;5.97;4.15;;;2.90;99.90;;;;;;6018269;23;20682;-75
2021/12/27 17:39:17;;;;;;;3.20;2.92;;;1.80;99.90;;;;;;6062628;23;20188;-76
2021/12/27 17:42:11;;;;;;;5.43;3.30;;;1.80;99.90;;;;;;6057400;23;20282;-74
2021/12/27 17:45:05;;;;;;;4.03;3.10;;;1.80;99.90;;;;;;6040509;23;20185;-72
2021/12/27 17:52:06;;;;;;;4.85;3.60;;;1.00;99.90;;;;;;6023934;23;20264;-71
2021/12/27 17:54:37;;;;;;;3.45;2.58;;;0.70;99.90;;;;;;6060490;23;20318;-71
2021/12/27 17:57:08;;;;;;;15.45;6.65;;;0.30;99.90;;;;;;6062237;23;20709;-71
2021/12/27 18:00:04;;;;;;;48.75;15.02;;;0.20;99.90;;;;;;6066506;23;20261;-72
2021/12/27 18:02:36;;;;;;;3.38;2.70;;;0.20;99.90;;;;;;6057048;23;20658;-71
2021/12/27 18:05:09;;;;;;;3.22;3.00;;;0.20;99.90;;;;;;6060900;23;20497;-72
2021/12/27 18:07:46;;;;;;;5.07;2.85;;;-0.10;99.90;;;;;;6063800;23;20185;-71
2021/12/27 18:10:20;;;;;;;3.55;2.72;;;-0.30;99.90;;;;;;6058681;23;20188;-70
2021/12/27 18:12:54;;;;;;;8.18;3.45;;;-0.50;99.90;;;;;;6063043;23;20296;-70
2021/12/27 18:15:28;;;;;;;4.65;3.20;;;-0.30;99.90;;;;;;6058403;23;20192;-73
2021/12/27 18:17:59;;;;;;;4.10;2.63;;;-0.10;99.90;;;;;;6061340;23;20188;-71
2021/12/27 18:20:30;;;;;;;3.13;2.83;;;0.20;99.90;;;;;;6060280;23;20196;-72
2021/12/27 18:23:06;;;;;;;3.90;2.95;;;0.50;99.90;;;;;;6061355;23;20239;-70
2021/12/27 18:25:38;;;;;;;3.15;2.55;;;0.60;99.90;;;;;;6061719;23;20189;-73
2021/12/27 18:28:11;;;;;;;3.00;2.70;;;1.00;99.90;;;;;;6064082;23;20252;-71
2021/12/27 18:30:45;;;;;;;2.55;2.28;;;0.80;99.90;;;;;;6062435;23;20256;-72
2021/12/27 18:33:16;;;;;;;2.50;2.30;;;0.60;99.90;;;;;;6061199;23;20213;-73